Noordam — PHET — position and weather

sailwx.info

Track history (hours):
 
Tides and Currents Weather Stations Pressure Air Temp Water Temp Dewpoint Dewpoint Depression Visibility Wind Speed Wind Dir Waves Ship Positions

Noordam (Netherlands)

Ship's website: http://www.hollandamerica.com/cruiseships/Noordam

Last reported at 2015-May-30 19:33 UTC. Time now 2015-May-30 20:17 UTC.
Position N 49°17' W 123°07'.

Type: Passenger vessel. MMSI: 246028000.

Date/timePositionNaut miles runAvg speedWind from/ knotsBaromVisibWave heightAir tempDewpointWater temp
2015-May-30 19:33N 49°17' W 123°07'0 0.0
2015-May-30 18:33N 49°17' W 123°07'0 0.0
2015-May-30 17:33N 49°17' W 123°07'0 0.0
2015-May-30 16:33N 49°17' W 123°07'0 0.0
2015-May-30 15:33N 49°17' W 123°07'0 0.0
2015-May-30 14:33N 49°17' W 123°07'2 1.5
2015-May-30 13:33N 49°19' W 123°08'1110.9
2015-May-30 12:33N 49°18' W 123°24'1110.7
2015-May-30 11:33N 49°18' W 123°41'1111.3
2015-May-30 10:33N 49°20' W 123°58'1211.5
2015-May-30 09:29N 49°24' W 124°16'1111.9
2015-May-30 08:33N 49°30' W 124°30'10611.4
2015-May-29 23:16N 50°35' W 126°42'1317.5
2015-May-29 22:33N 50°42' W 126°58'1918.9
2015-May-29 21:32N 50°49' W 127°26'1818.0
2015-May-29 20:33N 50°59' W 127°49'1614.3
2015-May-29 19:28N 51°08' W 128°10'1516.0
2015-May-29 18:33N 51°17' W 128°28'6716.5
2015-May-29 14:29N 52°10' W 129°34'510.5
2015-May-29 14:00N 52°12' W 129°42'214 9.7 310 / 221014.0 5.4 1.010.0 7.4 8.0
2015-May-28 16:00N 55°30' W 132°00'1615.7 290 / 101014.010.8 12.0 9.2 8.0
2015-May-28 15:00N 55°42' W 132°18'20314.7 340 / 211014.010.8 0.512.0 9.2 8.0
2015-May-28 01:12N 58°18' W 136°15'522.1
2015-May-28 01:00N 58°18' W 136°06'717.1 210 / 221024.010.8 0.5 9.2 6.3 8.0
2015-May-28 00:33N 58°24' W 135°58'1413.8
2015-May-27 23:34N 58°37' W 136°06'1616.1
2015-May-27 22:33N 58°48' W 136°28'8 1.2
2015-May-27 16:12N 58°44' W 136°16'1116.3
2015-May-27 15:33N 58°35' W 136°04'1313.4
2015-May-27 14:33N 58°22' W 135°58'1110.8
2015-May-27 13:33N 58°17' W 135°40'1211.8
2015-May-27 12:32N 58°13' W 135°19'  
2015-May-24 17:33N 52°07' W 129°16'1818.3
2015-May-24 16:33N 51°58' W 128°50'1817.9
2015-May-24 15:33N 51°43' W 128°34'1918.2
2015-May-24 14:31N 51°25' W 128°25'1917.4
2015-May-24 13:27N 51°09' W 128°12'1719.1
2015-May-24 12:33N 50°59' W 127°49'1514.5
2015-May-24 11:33N 50°51' W 127°30'1716.6
2015-May-24 10:33N 50°44' W 127°06'1616.1
2015-May-24 09:33N 50°36' W 126°44'1716.3
2015-May-24 08:32N 50°30' W 126°20'6514.8
2015-May-24 04:08N 49°51' W 124°58'1422.2
2015-May-24 03:31N 49°40' W 124°44'2321.9
2015-May-24 02:28N 49°25' W 124°18'2022.1
2015-May-24 01:33N 49°20' W 123°48'2222.1
2015-May-24 00:33N 49°19' W 123°14'5 5.1
2015-May-23 23:32N 49°17' W 123°07'0 0.0
2015-May-23 22:32N 49°17' W 123°07'0 0.0
2015-May-23 21:32N 49°17' W 123°07'0 0.0
2015-May-23 20:32N 49°17' W 123°07'0 0.0
2015-May-23 19:32N 49°17' W 123°07'0 0.0
2015-May-23 18:32N 49°17' W 123°07'0 0.0
2015-May-23 17:32N 49°17' W 123°07'0 0.0
2015-May-23 16:32N 49°17' W 123°07'0 0.0
2015-May-23 15:32N 49°17' W 123°07'0 0.0
2015-May-23 14:32N 49°17' W 123°07'1 1.5
2015-May-23 13:33N 49°19' W 123°08'1111.1
2015-May-23 12:33N 49°18' W 123°25'1111.0
2015-May-23 11:33N 49°19' W 123°42'1111.0
2015-May-23 10:33N 49°22' W 123°58'1110.9
2015-May-23 09:32N 49°24' W 124°15'1111.0
2015-May-23 08:30N 49°30' W 124°30'2611.5
2015-May-23 06:12N 49°50' W 124°57'6011.8
2015-May-23 01:08N 50°28' W 126°09'1015.0
2015-May-23 00:27N 50°30' W 126°25'1213.3
2015-May-22 23:32N 50°35' W 126°42'1616.4
2015-May-22 22:33N 50°44' W 127°03'2216.6
2015-May-22 21:14N 50°53' W 127°35'1015.2
2015-May-22 20:33N 50°59' W 127°48'1413.7
2015-May-22 19:33N 51°07' W 128°06'1514.9
2015-May-22 18:33N 51°16' W 128°24'50112.2
2015-May-21 01:31N 58°17' W 136°16'1212.8
2015-May-21 00:33N 58°27' W 136°01'1515.1
2015-May-20 23:33N 58°41' W 136°11'1616.5
2015-May-20 22:33N 58°51' W 136°36'  
Track history (hours):
 
Tides and Currents Weather Stations Pressure Air Temp Water Temp Dewpoint Dewpoint Depression Visibility Wind Speed Wind Dir Waves Ship Positions

Noordam (Netherlands)

Ship's website: http://www.hollandamerica.com/cruiseships/Noordam

Last reported at 2015-May-30 19:33 UTC. Time now 2015-May-30 20:17 UTC.
Position N 49°17' W 123°07'.

Type: Passenger vessel. MMSI: 246028000.

Date/timePositionNaut miles runAvg speedWind from/ knotsBaromVisibWave heightAir tempDewpointWater temp
2015-May-30 19:33N 49°17' W 123°07'0 0.0
2015-May-30 18:33N 49°17' W 123°07'0 0.0
2015-May-30 17:33N 49°17' W 123°07'0 0.0
2015-May-30 16:33N 49°17' W 123°07'0 0.0
2015-May-30 15:33N 49°17' W 123°07'0 0.0
2015-May-30 14:33N 49°17' W 123°07'2 1.5
2015-May-30 13:33N 49°19' W 123°08'1110.9
2015-May-30 12:33N 49°18' W 123°24'1110.7
2015-May-30 11:33N 49°18' W 123°41'1111.3
2015-May-30 10:33N 49°20' W 123°58'1211.5
2015-May-30 09:29N 49°24' W 124°16'1111.9
2015-May-30 08:33N 49°30' W 124°30'10611.4
2015-May-29 23:16N 50°35' W 126°42'1317.5
2015-May-29 22:33N 50°42' W 126°58'1918.9
2015-May-29 21:32N 50°49' W 127°26'1818.0
2015-May-29 20:33N 50°59' W 127°49'1614.3
2015-May-29 19:28N 51°08' W 128°10'1516.0
2015-May-29 18:33N 51°17' W 128°28'6716.5
2015-May-29 14:29N 52°10' W 129°34'510.5
2015-May-29 14:00N 52°12' W 129°42'214 9.7 310 / 221014.0 5.4 1.010.0 7.4 8.0
2015-May-28 16:00N 55°30' W 132°00'1615.7 290 / 101014.010.8 12.0 9.2 8.0
2015-May-28 15:00N 55°42' W 132°18'20314.7 340 / 211014.010.8 0.512.0 9.2 8.0
2015-May-28 01:12N 58°18' W 136°15'522.1
2015-May-28 01:00N 58°18' W 136°06'717.1 210 / 221024.010.8 0.5 9.2 6.3 8.0
2015-May-28 00:33N 58°24' W 135°58'1413.8
2015-May-27 23:34N 58°37' W 136°06'1616.1
2015-May-27 22:33N 58°48' W 136°28'8 1.2
2015-May-27 16:12N 58°44' W 136°16'1116.3
2015-May-27 15:33N 58°35' W 136°04'1313.4
2015-May-27 14:33N 58°22' W 135°58'1110.8
2015-May-27 13:33N 58°17' W 135°40'1211.8
2015-May-27 12:32N 58°13' W 135°19'  
2015-May-24 17:33N 52°07' W 129°16'1818.3
2015-May-24 16:33N 51°58' W 128°50'1817.9
2015-May-24 15:33N 51°43' W 128°34'1918.2
2015-May-24 14:31N 51°25' W 128°25'1917.4
2015-May-24 13:27N 51°09' W 128°12'1719.1
2015-May-24 12:33N 50°59' W 127°49'1514.5
2015-May-24 11:33N 50°51' W 127°30'1716.6
2015-May-24 10:33N 50°44' W 127°06'1616.1
2015-May-24 09:33N 50°36' W 126°44'1716.3
2015-May-24 08:32N 50°30' W 126°20'6514.8
2015-May-24 04:08N 49°51' W 124°58'1422.2
2015-May-24 03:31N 49°40' W 124°44'2321.9
2015-May-24 02:28N 49°25' W 124°18'2022.1
2015-May-24 01:33N 49°20' W 123°48'2222.1
2015-May-24 00:33N 49°19' W 123°14'5 5.1
2015-May-23 23:32N 49°17' W 123°07'0 0.0
2015-May-23 22:32N 49°17' W 123°07'0 0.0
2015-May-23 21:32N 49°17' W 123°07'0 0.0
2015-May-23 20:32N 49°17' W 123°07'0 0.0
2015-May-23 19:32N 49°17' W 123°07'0 0.0
2015-May-23 18:32N 49°17' W 123°07'0 0.0
2015-May-23 17:32N 49°17' W 123°07'0 0.0
2015-May-23 16:32N 49°17' W 123°07'0 0.0
2015-May-23 15:32N 49°17' W 123°07'0 0.0
2015-May-23 14:32N 49°17' W 123°07'1 1.5
2015-May-23 13:33N 49°19' W 123°08'1111.1
2015-May-23 12:33N 49°18' W 123°25'1111.0
2015-May-23 11:33N 49°19' W 123°42'1111.0
2015-May-23 10:33N 49°22' W 123°58'1110.9
2015-May-23 09:32N 49°24' W 124°15'1111.0
2015-May-23 08:30N 49°30' W 124°30'2611.5
2015-May-23 06:12N 49°50' W 124°57'6011.8
2015-May-23 01:08N 50°28' W 126°09'1015.0
2015-May-23 00:27N 50°30' W 126°25'1213.3
2015-May-22 23:32N 50°35' W 126°42'1616.4
2015-May-22 22:33N 50°44' W 127°03'2216.6
2015-May-22 21:14N 50°53' W 127°35'1015.2
2015-May-22 20:33N 50°59' W 127°48'1413.7
2015-May-22 19:33N 51°07' W 128°06'1514.9
2015-May-22 18:33N 51°16' W 128°24'50112.2
2015-May-21 01:31N 58°17' W 136°16'1212.8
2015-May-21 00:33N 58°27' W 136°01'1515.1
2015-May-20 23:33N 58°41' W 136°11'1616.5
2015-May-20 22:33N 58°51' W 136°36'  

Dump ship's entire track history